Time;durP1;ratioP1;P1;durP2;ratioP2;P2;SDS_P1;SDS_P2;PMS_P1;PMS_P2;Temp;Humidity;BMP_temperature;BMP_pressure;BME280_temperature;BME280_humidity;BME280_pressure;Samples;Min_cycle;Max_cycle;Signal;HPM_P1;HPM_P2
2023/09/24 00:02:12;;;;;;;0.22;0.22;;;10.90;99.90;;;;;;5122245;27;20126;-74
2023/09/24 00:04:39;;;;;;;0.00;0.00;;;10.90;99.90;;;;;;5127295;27;20069;-73
2023/09/24 00:07:08;;;;;;;0.00;0.00;;;10.80;99.90;;;;;;5125174;27;20156;-74
2023/09/24 00:09:34;;;;;;;0.25;0.15;;;10.80;99.90;;;;;;5125172;27;20048;-73
2023/09/24 00:11:59;;;;;;;0.10;0.10;;;10.70;99.90;;;;;;5127583;27;20040;-73
2023/09/24 00:14:26;;;;;;;0.00;0.00;;;10.70;99.90;;;;;;5127678;27;20043;-74
2023/09/24 00:16:52;;;;;;;0.00;0.00;;;10.50;99.90;;;;;;5128475;27;20055;-73
2023/09/24 00:19:17;;;;;;;0.00;0.00;;;10.50;99.90;;;;;;5128358;27;20063;-73
2023/09/24 00:21:43;;;;;;;0.00;0.00;;;10.40;99.90;;;;;;5128319;27;20076;-73
2023/09/24 00:24:10;;;;;;;0.00;0.00;;;10.40;99.90;;;;;;5123690;27;20040;-73
2023/09/24 00:26:35;;;;;;;0.00;0.00;;;10.30;99.90;;;;;;5130960;27;20043;-73
2023/09/24 00:29:02;;;;;;;0.00;0.00;;;10.20;99.90;;;;;;5124762;27;20040;-73
2023/09/24 00:31:27;;;;;;;0.00;0.00;;;10.10;99.90;;;;;;5127527;27;20407;-73
2023/09/24 00:33:53;;;;;;;0.00;0.00;;;10.10;99.90;;;;;;5124187;27;20043;-73
2023/09/24 00:36:19;;;;;;;0.00;0.00;;;10.00;99.90;;;;;;5126152;27;20059;-73
2023/09/24 00:38:45;;;;;;;0.00;0.00;;;9.90;99.90;;;;;;5127091;27;20031;-73
2023/09/24 00:41:10;;;;;;;4.18;0.98;;;9.80;99.90;;;;;;5127412;27;20096;-73
2023/09/24 00:43:36;;;;;;;0.10;0.10;;;9.70;99.90;;;;;;5123610;27;20123;-73
2023/09/24 00:46:04;;;;;;;0.10;0.10;;;9.70;99.90;;;;;;5119144;27;20047;-73
2023/09/24 00:48:31;;;;;;;19.63;0.52;;;9.60;99.90;;;;;;5132732;27;20108;-73
2023/09/24 00:51:08;;;;;;;0.00;0.00;;;9.50;99.90;;;;;;5105741;27;20050;-73
2023/09/24 00:53:34;;;;;;;0.00;0.00;;;9.50;99.90;;;;;;5122931;27;20051;-73
2023/09/24 00:56:00;;;;;;;0.00;0.00;;;9.40;99.90;;;;;;5105483;27;20031;-73
2023/09/24 00:58:28;;;;;;;0.00;0.00;;;9.40;99.90;;;;;;5127639;27;20377;-73
2023/09/24 01:00:55;;;;;;;0.10;0.10;;;9.40;99.90;;;;;;5115982;27;20054;-72
2023/09/24 01:03:26;;;;;;;0.03;0.03;;;9.40;99.90;;;;;;5124201;27;20492;-73
2023/09/24 01:05:52;;;;;;;0.63;0.45;;;9.60;99.90;;;;;;5123974;27;20047;-73
2023/09/24 01:08:19;;;;;;;0.38;0.32;;;9.40;99.90;;;;;;5124134;27;20392;-73
2023/09/24 01:10:49;;;;;;;1.08;0.75;;;9.40;99.90;;;;;;5125036;27;20189;-73
2023/09/24 01:13:15;;;;;;;0.00;0.00;;;9.40;99.90;;;;;;5131329;27;20065;-73
2023/09/24 01:15:44;;;;;;;0.00;0.00;;;9.40;99.90;;;;;;5120098;27;20079;-73
2023/09/24 01:18:10;;;;;;;0.63;0.55;;;9.40;99.90;;;;;;5115309;27;20035;-73
2023/09/24 01:20:36;;;;;;;0.20;0.10;;;9.30;99.90;;;;;;5123605;27;20039;-73
2023/09/24 01:23:03;;;;;;;0.00;0.00;;;9.30;99.90;;;;;;5124948;27;20621;-73
2023/09/24 01:25:35;;;;;;;0.13;0.10;;;9.20;99.90;;;;;;5127457;27;20067;-73
2023/09/24 01:28:03;;;;;;;0.00;0.00;;;9.20;99.90;;;;;;5123937;27;20028;-73
2023/09/24 01:30:28;;;;;;;0.00;0.00;;;9.20;99.90;;;;;;5126469;27;20050;-73
2023/09/24 01:32:54;;;;;;;0.00;0.00;;;9.10;99.90;;;;;;5126307;27;20036;-73
2023/09/24 01:35:26;;;;;;;0.17;0.10;;;9.10;99.90;;;;;;5123283;27;20043;-73
2023/09/24 01:37:52;;;;;;;0.17;0.17;;;9.10;99.90;;;;;;5129829;27;20047;-73
2023/09/24 01:40:21;;;;;;;0.38;0.10;;;9.20;99.90;;;;;;5125275;27;20066;-73
2023/09/24 01:42:47;;;;;;;0.00;0.00;;;9.20;99.90;;;;;;5123155;27;20122;-73
2023/09/24 01:45:13;;;;;;;0.10;0.10;;;9.10;99.90;;;;;;5125655;27;20541;-73
2023/09/24 01:47:39;;;;;;;0.38;0.38;;;9.10;99.90;;;;;;5114680;27;20085;-72
2023/09/24 01:50:07;;;;;;;0.00;0.00;;;9.00;99.90;;;;;;5122612;27;20044;-73
2023/09/24 01:52:37;;;;;;;0.00;0.00;;;9.00;99.90;;;;;;5124798;27;20139;-76
2023/09/24 01:55:02;;;;;;;0.05;0.05;;;9.00;99.90;;;;;;5125343;27;20084;-73
2023/09/24 01:57:29;;;;;;;0.55;0.40;;;8.90;99.90;;;;;;5116211;27;20039;-73
2023/09/24 01:59:56;;;;;;;0.75;0.75;;;8.80;99.90;;;;;;5122983;27;20487;-73
2023/09/24 02:02:23;;;;;;;0.38;0.10;;;8.80;99.90;;;;;;5123139;27;20057;-73
2023/09/24 02:04:48;;;;;;;0.30;0.20;;;8.90;99.90;;;;;;5117719;27;20058;-73
2023/09/24 02:07:15;;;;;;;1.25;0.20;;;8.80;99.90;;;;;;5128472;27;20035;-73
2023/09/24 02:09:41;;;;;;;0.20;0.20;;;8.80;99.90;;;;;;5123526;27;20035;-73
2023/09/24 02:12:09;;;;;;;0.95;0.63;;;8.80;99.90;;;;;;5115140;27;20050;-73
2023/09/24 02:14:34;;;;;;;0.35;0.35;;;8.90;99.90;;;;;;5126109;27;20043;-72
2023/09/24 02:17:00;;;;;;;1.58;1.48;;;8.80;99.90;;;;;;5123648;27;20035;-72
2023/09/24 02:19:26;;;;;;;0.35;0.30;;;8.80;99.90;;;;;;5122603;28;20111;-73
2023/09/24 02:21:52;;;;;;;0.82;0.52;;;8.70;99.90;;;;;;5124732;28;20043;-73
2023/09/24 02:24:18;;;;;;;0.90;0.70;;;8.70;99.90;;;;;;5122895;28;20412;-73
2023/09/24 02:26:44;;;;;;;1.10;0.35;;;8.70;99.90;;;;;;5122645;28;20067;-73
2023/09/24 02:29:10;;;;;;;0.03;0.03;;;8.70;99.90;;;;;;5124383;28;20051;-73
2023/09/24 02:31:36;;;;;;;0.10;0.10;;;8.80;99.90;;;;;;5125078;28;20080;-73
2023/09/24 02:34:02;;;;;;;0.38;0.38;;;8.70;99.90;;;;;;5126040;27;20051;-73
2023/09/24 02:36:28;;;;;;;0.77;0.73;;;8.70;99.90;;;;;;5123026;28;20401;-73
2023/09/24 02:38:53;;;;;;;0.47;0.40;;;8.70;99.90;;;;;;5122885;28;20510;-73
2023/09/24 02:41:19;;;;;;;0.45;0.43;;;8.80;99.90;;;;;;5115174;28;20057;-72
2023/09/24 02:43:45;;;;;;;0.55;0.55;;;8.80;99.90;;;;;;5125769;28;20047;-73
2023/09/24 02:46:11;;;;;;;0.08;0.08;;;8.80;99.90;;;;;;5125961;27;20054;-73
2023/09/24 02:48:39;;;;;;;0.47;0.43;;;8.70;99.90;;;;;;5122527;27;20400;-73
2023/09/24 02:51:09;;;;;;;0.40;0.40;;;8.70;99.90;;;;;;5126967;28;20039;-73
2023/09/24 02:53:36;;;;;;;0.47;0.05;;;8.70;99.90;;;;;;5121423;27;20115;-73
2023/09/24 02:56:04;;;;;;;0.20;0.20;;;8.70;99.90;;;;;;5122736;28;20127;-73
2023/09/24 02:58:30;;;;;;;0.52;0.47;;;8.80;99.90;;;;;;5122742;28;20044;-73
2023/09/24 03:00:57;;;;;;;0.45;0.38;;;8.80;99.90;;;;;;5126053;27;20035;-72
2023/09/24 03:03:23;;;;;;;0.43;0.28;;;8.80;99.90;;;;;;5130112;27;20042;-73
2023/09/24 03:05:48;;;;;;;0.15;0.08;;;8.80;99.90;;;;;;5127376;27;20126;-73
2023/09/24 03:08:15;;;;;;;0.20;0.20;;;8.90;99.90;;;;;;5126212;27;20035;-73
2023/09/24 03:10:41;;;;;;;0.00;0.00;;;8.90;99.90;;;;;;5126264;27;20036;-72
2023/09/24 03:13:07;;;;;;;1.05;0.20;;;9.00;99.90;;;;;;5129698;27;20031;-73
2023/09/24 03:15:34;;;;;;;0.65;0.57;;;9.10;99.90;;;;;;5130024;27;20602;-73
2023/09/24 03:18:02;;;;;;;0.20;0.20;;;9.10;99.90;;;;;;5126183;27;20164;-73
2023/09/24 03:20:28;;;;;;;1.10;0.85;;;9.10;99.90;;;;;;5125294;27;20070;-73
2023/09/24 03:22:57;;;;;;;0.00;0.00;;;9.20;99.90;;;;;;5126593;27;20044;-73
2023/09/24 03:25:27;;;;;;;0.57;0.20;;;9.20;99.90;;;;;;5129270;27;20039;-73
2023/09/24 03:27:58;;;;;;;0.10;0.10;;;9.40;99.90;;;;;;5129388;27;20096;-73
2023/09/24 03:30:24;;;;;;;0.03;0.00;;;9.30;99.90;;;;;;5119215;27;20483;-73
2023/09/24 03:32:51;;;;;;;1.50;0.75;;;9.20;99.90;;;;;;5126054;27;20035;-72
2023/09/24 03:35:26;;;;;;;0.25;0.17;;;9.30;99.90;;;;;;5127894;27;20039;-73
2023/09/24 03:37:53;;;;;;;0.13;0.13;;;9.30;99.90;;;;;;5129031;27;20069;-73
2023/09/24 03:40:21;;;;;;;0.20;0.20;;;9.30;99.90;;;;;;5126301;27;20051;-73
2023/09/24 03:42:47;;;;;;;0.32;0.32;;;9.30;99.90;;;;;;5121884;27;20031;-73
2023/09/24 03:45:15;;;;;;;0.00;0.00;;;9.40;99.90;;;;;;5128833;27;20078;-73
2023/09/24 03:47:41;;;;;;;1.25;0.30;;;9.40;99.90;;;;;;5125618;27;20063;-73
2023/09/24 03:50:13;;;;;;;0.88;0.47;;;9.40;99.90;;;;;;5126759;27;20500;-73
2023/09/24 03:52:49;;;;;;;0.05;0.05;;;9.30;99.90;;;;;;5125556;27;20144;-73
2023/09/24 03:55:19;;;;;;;0.28;0.05;;;9.30;99.90;;;;;;5125890;27;20101;-73
2023/09/24 03:57:47;;;;;;;0.00;0.00;;;9.30;99.90;;;;;;5128548;27;20047;-73
2023/09/24 04:00:18;;;;;;;0.15;0.10;;;9.20;99.90;;;;;;5128148;27;20073;-73
2023/09/24 04:02:47;;;;;;;0.60;0.60;;;9.20;99.90;;;;;;5126495;27;20058;-73
2023/09/24 04:05:17;;;;;;;0.05;0.05;;;9.30;99.90;;;;;;5125198;27;20068;-73
2023/09/24 04:07:44;;;;;;;2.33;0.38;;;9.20;99.90;;;;;;5122236;27;20044;-73
2023/09/24 04:10:14;;;;;;;0.73;0.50;;;9.10;99.90;;;;;;5128585;27;20039;-73
2023/09/24 04:12:43;;;;;;;1.48;0.82;;;9.20;99.90;;;;;;5127532;27;20046;-73
2023/09/24 04:15:09;;;;;;;0.65;0.63;;;9.10;99.90;;;;;;5125038;27;20062;-73
2023/09/24 04:17:39;;;;;;;0.82;0.60;;;9.10;99.90;;;;;;5124367;27;20039;-73
2023/09/24 04:20:11;;;;;;;0.60;0.60;;;9.00;99.90;;;;;;5108900;27;20055;-74
2023/09/24 04:22:37;;;;;;;0.00;0.00;;;9.00;99.90;;;;;;5128531;27;20047;-72
2023/09/24 04:25:03;;;;;;;0.60;0.55;;;9.00;99.90;;;;;;5126666;27;20088;-72
2023/09/24 04:27:29;;;;;;;0.00;0.00;;;9.00;99.90;;;;;;5130955;27;20035;-72
2023/09/24 04:29:55;;;;;;;0.40;0.22;;;9.10;99.90;;;;;;5116521;27;20127;-72
2023/09/24 04:32:20;;;;;;;0.35;0.32;;;8.90;99.90;;;;;;5115951;27;20446;-72
2023/09/24 04:34:46;;;;;;;0.00;0.00;;;8.90;99.90;;;;;;5124467;27;20048;-72
2023/09/24 04:37:13;;;;;;;0.43;0.35;;;8.90;99.90;;;;;;5124699;27;20384;-72
2023/09/24 04:39:39;;;;;;;0.22;0.22;;;8.90;99.90;;;;;;5127702;27;20040;-72
2023/09/24 04:42:06;;;;;;;0.40;0.30;;;8.90;99.90;;;;;;5126504;27;20043;-72
2023/09/24 04:44:32;;;;;;;0.10;0.10;;;8.90;99.90;;;;;;5124169;27;20107;-72
2023/09/24 04:46:57;;;;;;;0.30;0.30;;;8.90;99.90;;;;;;5123210;27;20666;-72
2023/09/24 04:49:23;;;;;;;0.10;0.10;;;9.00;99.90;;;;;;5124146;27;20419;-72
2023/09/24 04:51:50;;;;;;;0.57;0.52;;;9.00;99.90;;;;;;5126213;27;20047;-72
2023/09/24 04:54:16;;;;;;;0.55;0.45;;;8.90;99.90;;;;;;5126188;27;20039;-72
2023/09/24 04:56:41;;;;;;;0.68;0.63;;;9.00;99.90;;;;;;5123229;27;20534;-72
2023/09/24 04:59:07;;;;;;;0.75;0.52;;;9.00;99.90;;;;;;5122139;27;20039;-72
2023/09/24 05:01:32;;;;;;;0.05;0.05;;;9.40;99.90;;;;;;5123941;27;20074;-72
2023/09/24 05:03:59;;;;;;;0.38;0.38;;;9.00;99.90;;;;;;5126219;27;20031;-72
2023/09/24 05:06:25;;;;;;;0.75;0.75;;;9.00;99.90;;;;;;5126056;27;20050;-72
2023/09/24 05:08:52;;;;;;;0.32;0.32;;;9.00;99.90;;;;;;5122247;27;20039;-72
2023/09/24 05:11:18;;;;;;;1.15;0.47;;;9.10;99.90;;;;;;5122578;27;20032;-72
2023/09/24 05:13:45;;;;;;;1.02;0.88;;;9.00;99.90;;;;;;5122937;27;20492;-72
2023/09/24 05:16:11;;;;;;;0.95;0.57;;;9.20;99.90;;;;;;5126130;27;20041;-72
2023/09/24 05:18:37;;;;;;;0.20;0.20;;;9.10;99.90;;;;;;5125333;27;20031;-72
2023/09/24 05:21:03;;;;;;;2.22;1.13;;;9.30;99.90;;;;;;5123243;27;20059;-72
2023/09/24 05:23:29;;;;;;;0.00;0.00;;;9.20;99.90;;;;;;5122241;27;20480;-72
2023/09/24 05:25:55;;;;;;;3.35;0.73;;;9.40;99.90;;;;;;5122038;27;20096;-72
2023/09/24 05:28:20;;;;;;;0.22;0.13;;;9.10;99.90;;;;;;5123450;27;20057;-73
2023/09/24 05:30:57;;;;;;;0.85;0.52;;;9.10;99.90;;;;;;5125425;27;20161;-72
2023/09/24 05:33:22;;;;;;;3.58;1.58;;;9.00;99.90;;;;;;5113920;27;20106;-72
2023/09/24 05:35:52;;;;;;;0.15;0.15;;;9.00;99.90;;;;;;5121616;27;20300;-72
2023/09/24 05:38:18;;;;;;;0.28;0.28;;;9.00;99.90;;;;;;5124165;27;20101;-72
2023/09/24 05:40:43;;;;;;;1.58;1.15;;;9.10;99.90;;;;;;5125538;27;20045;-72
2023/09/24 05:43:09;;;;;;;0.30;0.30;;;9.20;99.90;;;;;;5124901;27;20043;-72
2023/09/24 05:45:35;;;;;;;0.22;0.22;;;9.10;99.90;;;;;;5121454;27;20071;-72
2023/09/24 05:48:00;;;;;;;0.98;0.82;;;9.10;99.90;;;;;;5122169;27;20035;-72
2023/09/24 05:50:26;;;;;;;0.32;0.30;;;9.10;99.90;;;;;;5123581;27;20032;-72
2023/09/24 05:52:52;;;;;;;0.00;0.00;;;9.10;99.90;;;;;;5124904;27;20047;-72
2023/09/24 05:55:18;;;;;;;0.15;0.15;;;9.10;99.90;;;;;;5123798;27;20143;-72
2023/09/24 05:57:44;;;;;;;0.03;0.03;;;9.10;99.90;;;;;;5121092;27;20115;-72
2023/09/24 06:00:10;;;;;;;1.38;0.55;;;9.20;99.90;;;;;;5122187;27;20404;-72
2023/09/24 06:02:36;;;;;;;0.52;0.47;;;9.20;99.90;;;;;;5121608;27;20047;-72
2023/09/24 06:05:02;;;;;;;0.75;0.70;;;9.20;99.90;;;;;;5121950;28;20154;-72
2023/09/24 06:07:28;;;;;;;0.10;0.05;;;9.30;99.90;;;;;;5121240;27;20075;-72
2023/09/24 06:09:56;;;;;;;3.63;1.38;;;9.30;99.90;;;;;;5121845;27;20532;-72
2023/09/24 06:12:24;;;;;;;0.73;0.65;;;9.40;99.90;;;;;;5121530;27;20493;-72
2023/09/24 06:14:50;;;;;;;0.10;0.10;;;9.40;99.90;;;;;;5126393;28;20516;-72
2023/09/24 06:17:15;;;;;;;1.95;0.60;;;9.40;99.90;;;;;;5117655;28;20097;-72
2023/09/24 06:19:41;;;;;;;0.57;0.55;;;9.50;99.90;;;;;;5121707;28;20048;-72
2023/09/24 06:22:06;;;;;;;0.40;0.40;;;9.50;99.90;;;;;;5124417;28;20091;-72
2023/09/24 06:24:32;;;;;;;0.00;0.00;;;9.50;99.90;;;;;;5119804;28;20043;-72
2023/09/24 06:26:58;;;;;;;0.55;0.55;;;9.50;99.90;;;;;;5120214;28;20043;-72
2023/09/24 06:29:23;;;;;;;0.63;0.43;;;9.60;99.90;;;;;;5124805;28;20039;-72
2023/09/24 06:31:50;;;;;;;0.28;0.28;;;9.60;99.90;;;;;;5124752;28;20104;-72
2023/09/24 06:34:16;;;;;;;0.40;0.38;;;9.70;99.90;;;;;;5117918;27;20075;-72
2023/09/24 06:36:41;;;;;;;1.00;0.77;;;9.70;99.90;;;;;;5126890;27;20135;-72
2023/09/24 06:39:10;;;;;;;0.28;0.22;;;10.00;99.90;;;;;;5127847;27;20050;-72
2023/09/24 06:41:36;;;;;;;0.65;0.43;;;9.80;99.90;;;;;;5124253;27;20048;-72
2023/09/24 06:44:01;;;;;;;1.92;1.33;;;9.80;99.90;;;;;;5124894;27;20042;-72
2023/09/24 06:46:27;;;;;;;1.00;0.40;;;10.20;99.90;;;;;;5127916;27;20469;-72
2023/09/24 06:48:53;;;;;;;0.68;0.68;;;10.10;99.90;;;;;;5128760;27;20456;-72
2023/09/24 06:51:20;;;;;;;2.45;1.52;;;10.20;99.90;;;;;;5128137;27;20047;-72
2023/09/24 06:53:46;;;;;;;0.40;0.40;;;10.20;99.90;;;;;;5124925;27;20061;-72
2023/09/24 06:56:11;;;;;;;0.63;0.60;;;10.30;99.90;;;;;;5121249;27;20400;-72
2023/09/24 06:58:37;;;;;;;0.05;0.05;;;10.40;99.90;;;;;;5127270;27;20031;-72
2023/09/24 07:01:03;;;;;;;0.63;0.63;;;10.40;99.90;;;;;;5126760;27;20031;-72
2023/09/24 07:03:30;;;;;;;0.90;0.77;;;10.40;99.90;;;;;;5116009;27;20035;-72
2023/09/24 07:05:55;;;;;;;0.22;0.22;;;10.60;99.90;;;;;;5128343;27;20039;-72
2023/09/24 07:08:21;;;;;;;0.57;0.57;;;10.70;99.90;;;;;;5127704;27;20480;-72
2023/09/24 07:11:10;;;;;;;0.35;0.30;;;11.10;99.90;;;;;;5126304;27;20070;-72
2023/09/24 07:13:35;;;;;;;0.30;0.30;;;10.70;99.90;;;;;;5124095;27;20036;-72
2023/09/24 07:16:01;;;;;;;0.82;0.57;;;10.80;99.90;;;;;;5128085;27;20043;-72
2023/09/24 07:18:27;;;;;;;0.90;0.40;;;10.80;99.90;;;;;;5128150;27;20043;-72
2023/09/24 07:20:53;;;;;;;0.00;0.00;;;10.90;99.90;;;;;;5126900;27;20047;-72
2023/09/24 07:23:18;;;;;;;0.60;0.47;;;10.90;99.90;;;;;;5117347;27;20035;-72
2023/09/24 07:25:44;;;;;;;0.57;0.55;;;11.00;99.90;;;;;;5124792;27;20474;-72
2023/09/24 07:28:09;;;;;;;1.23;1.02;;;11.00;99.90;;;;;;5121864;27;20107;-72
2023/09/24 07:30:35;;;;;;;8.02;2.03;;;11.00;99.90;;;;;;5121497;27;20038;-72
2023/09/24 07:33:00;;;;;;;1.02;0.77;;;11.00;99.90;;;;;;5120997;27;20036;-72
2023/09/24 07:35:26;;;;;;;0.65;0.65;;;11.00;99.90;;;;;;5122605;27;20034;-72
2023/09/24 07:37:52;;;;;;;1.85;0.32;;;11.10;99.90;;;;;;5098885;27;20036;-72
2023/09/24 07:40:17;;;;;;;0.20;0.15;;;11.10;99.90;;;;;;5125470;27;20054;-72
2023/09/24 07:42:46;;;;;;;1.10;0.90;;;11.20;99.90;;;;;;5115426;27;20039;-72
2023/09/24 07:45:13;;;;;;;1.10;0.90;;;12.10;99.90;;;;;;5122214;27;20051;-72
2023/09/24 07:47:39;;;;;;;1.15;1.05;;;11.20;99.90;;;;;;5120050;27;20036;-72
2023/09/24 07:50:05;;;;;;;10.13;2.15;;;11.30;99.90;;;;;;5121410;27;20439;-73
2023/09/24 07:52:31;;;;;;;13.05;1.10;;;11.30;99.90;;;;;;5120257;27;20126;-72
2023/09/24 07:54:57;;;;;;;12.02;1.20;;;11.40;99.90;;;;;;5113869;27;20079;-72
2023/09/24 07:57:22;;;;;;;0.00;0.00;;;11.50;99.90;;;;;;5124015;27;20067;-73
2023/09/24 07:59:48;;;;;;;0.45;0.25;;;11.70;99.90;;;;;;5121240;27;20051;-72
2023/09/24 08:02:13;;;;;;;0.05;0.03;;;11.70;99.90;;;;;;5126157;27;20051;-72
2023/09/24 08:04:39;;;;;;;0.65;0.47;;;11.70;99.90;;;;;;5120345;27;20499;-72
2023/09/24 08:07:05;;;;;;;1.67;0.95;;;11.80;99.90;;;;;;5111520;27;20096;-72
2023/09/24 08:09:48;;;;;;;0.55;0.52;;;11.80;99.90;;;;;;5106783;27;20048;-71
2023/09/24 08:12:16;;;;;;;0.85;0.65;;;12.00;99.90;;;;;;5115663;27;20046;-72
2023/09/24 08:14:43;;;;;;;1.52;0.93;;;12.00;5.40;;;;;;5122646;27;20050;-72
2023/09/24 08:17:10;;;;;;;2.20;0.88;;;12.10;1.00;;;;;;5120561;27;20066;-72
2023/09/24 08:19:36;;;;;;;0.38;0.38;;;12.10;99.90;;;;;;5120777;27;20485;-72
2023/09/24 08:22:01;;;;;;;1.65;1.33;;;12.20;99.90;;;;;;5119613;27;20040;-72
2023/09/24 08:24:27;;;;;;;0.63;0.63;;;12.30;99.90;;;;;;5115805;27;20043;-72
2023/09/24 08:26:52;;;;;;;0.10;0.10;;;12.40;8.40;;;;;;5107348;27;20123;-73
2023/09/24 08:29:18;;;;;;;1.08;0.98;;;12.50;99.90;;;;;;5110039;27;20488;-72
2023/09/24 08:31:43;;;;;;;3.80;1.35;;;13.10;1.00;;;;;;5105662;27;20080;-73
2023/09/24 08:34:09;;;;;;;0.00;0.00;;;12.60;1.00;;;;;;5106681;27;20399;-73
2023/09/24 08:36:35;;;;;;;1.00;0.55;;;12.70;20.10;;;;;;5123457;27;20047;-73
2023/09/24 08:39:03;;;;;;;0.00;0.00;;;12.80;99.90;;;;;;5123741;27;20484;-73
2023/09/24 08:41:28;;;;;;;1.00;0.85;;;12.90;99.90;;;;;;5111325;27;20078;-73
2023/09/24 08:43:56;;;;;;;0.10;0.10;;;12.90;4.30;;;;;;5120191;27;20576;-73
2023/09/24 08:46:22;;;;;;;0.55;0.40;;;13.00;99.90;;;;;;5121672;27;20122;-73
2023/09/24 08:48:50;;;;;;;2.00;1.10;;;13.10;20.90;;;;;;5123439;27;20045;-73
2023/09/24 08:51:16;;;;;;;0.65;0.55;;;13.30;99.90;;;;;;5123003;27;20127;-72
2023/09/24 08:53:42;;;;;;;0.20;0.20;;;13.30;99.90;;;;;;5112729;27;20088;-72
2023/09/24 08:56:08;;;;;;;0.43;0.30;;;13.50;99.90;;;;;;5123275;27;20473;-72
2023/09/24 08:58:34;;;;;;;0.38;0.38;;;13.50;1.00;;;;;;5121097;27;20043;-72
2023/09/24 09:01:00;;;;;;;0.77;0.77;;;14.00;25.80;;;;;;5120107;27;20492;-72
2023/09/24 09:03:28;;;;;;;0.98;0.82;;;14.70;1.00;;;;;;5107757;27;20050;-72
2023/09/24 09:05:53;;;;;;;0.20;0.20;;;15.60;1.00;;;;;;5111510;27;20032;-73
2023/09/24 09:08:19;;;;;;;0.45;0.45;;;16.40;99.90;;;;;;5119645;27;20044;-73
2023/09/24 09:10:47;;;;;;;0.68;0.52;;;17.00;99.90;;;;;;5119950;27;20047;-73
2023/09/24 09:13:21;;;;;;;2.22;1.08;;;17.40;99.90;;;;;;5122518;27;20081;-72
2023/09/24 09:16:00;;;;;;;0.20;0.10;;;17.60;99.90;;;;;;5121199;27;20035;-73
2023/09/24 09:18:26;;;;;;;0.25;0.15;;;18.00;99.90;;;;;;5119278;27;20043;-74
2023/09/24 09:21:00;;;;;;;0.38;0.38;;;18.20;94.20;;;;;;5120134;27;20051;-74
2023/09/24 09:23:43;;;;;;;0.22;0.22;;;18.30;94.70;;;;;;5121470;27;20441;-74
2023/09/24 09:26:09;;;;;;;0.28;0.22;;;18.70;96.50;;;;;;5119369;27;20043;-73
2023/09/24 09:28:35;;;;;;;1.45;1.05;;;19.00;33.60;;;;;;5118492;27;20047;-74
2023/09/24 09:31:11;;;;;;;0.00;0.00;;;19.00;26.70;;;;;;5119681;27;20049;-73
2023/09/24 09:33:39;;;;;;;2.08;0.75;;;19.10;1.00;;;;;;5122436;27;20047;-74
2023/09/24 09:36:22;;;;;;;0.95;0.43;;;19.20;1.00;;;;;;5121645;27;20114;-73
2023/09/24 09:38:49;;;;;;;1.10;0.52;;;19.20;1.00;;;;;;5118552;27;20073;-74
2023/09/24 09:41:17;;;;;;;0.50;0.45;;;19.30;1.00;;;;;;5119270;27;20514;-74
2023/09/24 09:43:46;;;;;;;0.00;0.00;;;19.00;1.00;;;;;;5118185;27;20526;-74
2023/09/24 09:46:16;;;;;;;2.10;1.27;;;19.00;1.00;;;;;;5115119;27;20040;-74
2023/09/24 09:48:48;;;;;;;0.00;0.00;;;19.20;1.00;;;;;;5120310;27;20051;-74
2023/09/24 09:51:16;;;;;;;2.50;1.30;;;19.20;1.00;;;;;;5117630;27;20492;-74
2023/09/24 09:53:43;;;;;;;0.63;0.52;;;19.30;1.00;;;;;;5119646;27;20728;-74
2023/09/24 09:56:09;;;;;;;0.60;0.35;;;19.20;1.00;;;;;;5121127;27;20049;-74
2023/09/24 09:58:36;;;;;;;0.25;0.20;;;19.40;1.00;;;;;;5118722;27;20079;-74
2023/09/24 10:01:04;;;;;;;0.20;0.20;;;19.30;1.00;;;;;;5117684;27;20043;-74
2023/09/24 10:03:34;;;;;;;0.52;0.35;;;19.30;1.00;;;;;;5118530;27;20439;-74
2023/09/24 10:06:02;;;;;;;0.43;0.40;;;19.40;1.00;;;;;;5104856;27;20039;-73
2023/09/24 10:08:42;;;;;;;0.00;0.00;;;19.70;1.00;;;;;;5104351;28;20066;-74
2023/09/24 10:11:31;;;;;;;7.13;1.25;;;19.60;1.00;;;;;;5109237;27;20085;-75
2023/09/24 10:13:58;;;;;;;0.22;0.22;;;19.40;1.00;;;;;;5119919;27;20040;-74
2023/09/24 10:16:36;;;;;;;0.10;0.10;;;19.20;1.00;;;;;;5120954;27;20096;-74
2023/09/24 10:19:04;;;;;;;3.47;1.05;;;19.30;99.90;;;;;;5117461;28;20058;-74
2023/09/24 10:21:37;;;;;;;0.40;0.13;;;19.40;99.90;;;;;;5117754;28;20043;-74
2023/09/24 10:24:14;;;;;;;0.10;0.10;;;19.50;99.90;;;;;;5119680;28;20089;-74
2023/09/24 10:27:03;;;;;;;0.10;0.10;;;19.50;99.90;;;;;;5120514;28;20042;-73
2023/09/24 10:29:50;;;;;;;0.15;0.15;;;19.50;99.90;;;;;;5103957;28;20121;-74
2023/09/24 10:32:23;;;;;;;0.08;0.08;;;19.20;99.90;;;;;;5117584;28;20055;-74
2023/09/24 10:34:54;;;;;;;0.00;0.00;;;19.20;99.90;;;;;;5118160;28;20051;-74
2023/09/24 10:37:24;;;;;;;0.93;0.52;;;19.20;99.90;;;;;;5117104;28;20036;-74
2023/09/24 10:39:59;;;;;;;0.00;0.00;;;19.30;99.90;;;;;;5116333;28;20088;-73
2023/09/24 10:42:37;;;;;;;0.70;0.40;;;19.30;99.90;;;;;;5118241;28;20067;-73
2023/09/24 10:45:12;;;;;;;0.80;0.80;;;19.30;99.90;;;;;;5123347;27;20035;-73
2023/09/24 10:47:42;;;;;;;0.45;0.45;;;19.50;99.90;;;;;;5113782;28;20386;-74
2023/09/24 10:50:09;;;;;;;0.17;0.17;;;19.60;99.90;;;;;;5121021;28;20036;-74
2023/09/24 10:52:59;;;;;;;0.13;0.13;;;19.70;99.90;;;;;;5123316;28;20087;-74
2023/09/24 10:55:28;;;;;;;1.08;0.43;;;19.70;99.90;;;;;;5122504;27;20118;-74
2023/09/24 10:57:55;;;;;;;1.27;0.35;;;19.80;99.90;;;;;;5123576;27;20046;-74
2023/09/24 11:00:22;;;;;;;1.67;0.60;;;20.10;99.90;;;;;;5124693;27;20054;-74
2023/09/24 11:03:00;;;;;;;0.20;0.20;;;20.10;99.90;;;;;;5121517;27;20169;-74
2023/09/24 11:05:27;;;;;;;9.93;0.98;;;20.00;99.90;;;;;;5120081;28;20450;-74
2023/09/24 11:07:54;;;;;;;5.25;1.75;;;20.40;99.90;;;;;;5120738;28;20037;-74
2023/09/24 11:10:25;;;;;;;0.60;0.30;;;20.30;99.90;;;;;;5120341;27;20373;-73
2023/09/24 11:12:52;;;;;;;12.15;0.95;;;20.40;99.90;;;;;;5117614;28;20480;-74
2023/09/24 11:15:19;;;;;;;0.05;0.05;;;20.40;99.90;;;;;;5117628;28;20231;-73
2023/09/24 11:17:46;;;;;;;0.00;0.00;;;20.40;99.90;;;;;;5118834;28;20035;-74
2023/09/24 11:20:12;;;;;;;0.95;0.38;;;20.40;99.90;;;;;;5121543;27;20476;-74
2023/09/24 11:22:38;;;;;;;0.10;0.08;;;20.40;99.90;;;;;;5124006;27;20294;-74
2023/09/24 11:25:12;;;;;;;0.00;0.00;;;20.60;99.90;;;;;;5125787;27;20452;-74
2023/09/24 11:27:52;;;;;;;0.20;0.20;;;20.70;99.90;;;;;;5124533;27;20097;-73
2023/09/24 11:30:19;;;;;;;0.30;0.28;;;20.70;99.90;;;;;;5116569;27;20032;-74
2023/09/24 11:32:46;;;;;;;0.10;0.10;;;20.60;99.90;;;;;;5124591;27;20044;-74
2023/09/24 11:35:14;;;;;;;1.13;0.63;;;20.80;99.90;;;;;;5127063;27;20096;-74
2023/09/24 11:37:50;;;;;;;0.08;0.03;;;20.90;99.90;;;;;;5125189;27;20042;-74
2023/09/24 11:40:37;;;;;;;0.60;0.45;;;21.20;99.90;;;;;;5125811;27;20093;-75
2023/09/24 11:43:04;;;;;;;0.00;0.00;;;21.70;99.90;;;;;;5125565;27;20044;-74
2023/09/24 11:45:49;;;;;;;0.50;0.17;;;21.90;99.90;;;;;;5125635;27;20066;-75
2023/09/24 11:48:25;;;;;;;0.00;0.00;;;21.90;99.90;;;;;;5125899;27;20039;-75
2023/09/24 11:51:01;;;;;;;0.20;0.20;;;21.80;99.90;;;;;;5131748;27;20384;-74
2023/09/24 11:53:27;;;;;;;0.95;0.45;;;21.60;99.90;;;;;;5126750;27;20056;-74
2023/09/24 11:55:58;;;;;;;0.85;0.63;;;21.60;99.90;;;;;;5128045;27;20058;-74
2023/09/24 11:58:28;;;;;;;0.90;0.40;;;21.60;99.90;;;;;;5128117;27;20075;-74
2023/09/24 12:00:55;;;;;;;0.03;0.03;;;21.60;99.90;;;;;;5121107;27;20035;-75
2023/09/24 12:03:21;;;;;;;0.25;0.25;;;21.40;99.90;;;;;;5120569;27;20035;-74
2023/09/24 12:05:47;;;;;;;0.15;0.13;;;21.50;99.90;;;;;;5127211;27;20440;-74
2023/09/24 12:08:13;;;;;;;0.15;0.15;;;21.50;99.90;;;;;;5128235;27;20031;-74
2023/09/24 12:10:41;;;;;;;0.43;0.28;;;21.60;99.90;;;;;;5127006;27;20042;-75
2023/09/24 12:13:08;;;;;;;0.00;0.00;;;21.60;99.90;;;;;;5124883;27;20070;-74
2023/09/24 12:15:34;;;;;;;0.00;0.00;;;21.30;99.90;;;;;;5124260;27;20040;-74
2023/09/24 12:18:03;;;;;;;0.03;0.03;;;21.20;99.90;;;;;;5127523;27;20167;-74
2023/09/24 12:20:28;;;;;;;0.20;0.10;;;21.10;99.90;;;;;;5128299;27;20078;-74
2023/09/24 12:22:55;;;;;;;0.30;0.30;;;21.20;99.90;;;;;;5126582;27;20039;-74
2023/09/24 12:25:20;;;;;;;1.45;0.17;;;21.40;99.90;;;;;;5124141;27;20048;-74
2023/09/24 12:27:47;;;;;;;0.43;0.28;;;21.50;99.90;;;;;;5124498;27;20050;-74
2023/09/24 12:30:13;;;;;;;0.00;0.00;;;21.70;99.90;;;;;;5127606;27;20078;-74
2023/09/24 12:32:39;;;;;;;1.27;0.70;;;21.60;99.90;;;;;;5127419;27;20488;-75
2023/09/24 12:35:07;;;;;;;0.55;0.20;;;21.80;99.90;;;;;;5125192;27;20046;-74
2023/09/24 12:37:34;;;;;;;0.10;0.10;;;22.10;99.90;;;;;;5117273;27;20559;-75
2023/09/24 12:40:00;;;;;;;0.20;0.13;;;22.10;99.90;;;;;;5124225;27;20684;-74
2023/09/24 12:42:30;;;;;;;0.35;0.32;;;22.40;99.90;;;;;;5124325;27;20082;-74
2023/09/24 12:44:59;;;;;;;0.35;0.22;;;22.30;99.90;;;;;;5124458;27;20083;-75
2023/09/24 12:47:25;;;;;;;0.65;0.55;;;22.40;99.90;;;;;;5123802;27;20046;-74
2023/09/24 12:49:56;;;;;;;0.00;0.00;;;22.60;99.90;;;;;;5124413;27;20036;-74
2023/09/24 12:52:24;;;;;;;10.25;0.57;;;22.70;99.90;;;;;;5125211;27;20081;-74
2023/09/24 12:54:49;;;;;;;0.25;0.20;;;22.60;99.90;;;;;;5126850;27;20122;-74
2023/09/24 12:57:15;;;;;;;0.00;0.00;;;22.80;99.90;;;;;;5127523;27;20094;-74